createdAt,value
2019-05-14T00:00:41.937Z,13.90
2019-05-14T00:03:12.746Z,13.90
2019-05-14T00:05:43.000Z,13.90
2019-05-14T00:08:13.419Z,13.90
2019-05-14T00:10:43.808Z,13.90
2019-05-14T00:13:14.121Z,14.00
2019-05-14T00:15:53.140Z,13.90
2019-05-14T00:18:23.444Z,14.00
2019-05-14T00:20:53.891Z,13.90
2019-05-14T00:23:28.301Z,13.90
2019-05-14T00:26:07.664Z,14.00
2019-05-14T00:28:38.495Z,14.00
2019-05-14T00:31:12.124Z,14.00
2019-05-14T00:33:43.715Z,14.00
2019-05-14T00:36:14.055Z,13.90
2019-05-14T00:38:48.085Z,13.90
2019-05-14T00:41:18.500Z,13.90
2019-05-14T00:43:51.406Z,13.90
2019-05-14T00:46:23.491Z,13.80
2019-05-14T00:48:53.809Z,13.80
2019-05-14T00:51:25.609Z,13.80
2019-05-14T00:53:55.940Z,13.80
2019-05-14T00:56:45.522Z,13.80
2019-05-14T00:59:17.122Z,13.80
2019-05-14T01:01:47.353Z,13.80
2019-05-14T01:04:17.737Z,13.80
2019-05-14T01:06:48.064Z,13.90
2019-05-14T01:09:18.385Z,13.90
2019-05-14T01:12:09.358Z,13.80
2019-05-14T01:14:42.370Z,13.80
2019-05-14T01:17:15.562Z,13.80
2019-05-14T01:19:45.702Z,13.80
2019-05-14T01:22:15.697Z,13.70
2019-05-14T01:24:48.831Z,13.60
2019-05-14T01:27:23.554Z,13.60
2019-05-14T01:29:53.602Z,13.60
2019-05-14T01:32:23.795Z,13.60
2019-05-14T01:34:54.029Z,13.60
2019-05-14T01:37:24.096Z,13.60
2019-05-14T01:39:54.182Z,13.60
2019-05-14T01:42:24.311Z,13.50
2019-05-14T01:44:55.519Z,13.60
2019-05-14T01:47:25.583Z,13.50
2019-05-14T01:49:56.627Z,13.50
2019-05-14T01:52:26.803Z,13.50
2019-05-14T01:54:56.861Z,13.50
2019-05-14T01:57:26.938Z,13.50
2019-05-14T01:59:57.002Z,13.50
2019-05-14T02:02:27.219Z,13.40
2019-05-14T02:04:57.342Z,13.40
2019-05-14T02:07:31.441Z,13.40
2019-05-14T02:10:04.774Z,13.30
2019-05-14T02:12:34.845Z,13.30
2019-05-14T02:15:06.870Z,13.30
2019-05-14T02:17:37.492Z,13.40
2019-05-14T02:20:12.328Z,13.40
2019-05-14T02:22:42.054Z,13.40
2019-05-14T02:25:14.090Z,13.40
2019-05-14T02:27:45.820Z,13.40
2019-05-14T02:30:20.216Z,13.40
2019-05-14T02:32:49.967Z,13.40
2019-05-14T02:35:20.345Z,13.50
2019-05-14T02:37:50.742Z,13.40
2019-05-14T02:40:21.976Z,13.40
2019-05-14T02:42:52.111Z,13.30
2019-05-14T02:45:22.162Z,13.40
2019-05-14T02:47:52.250Z,13.40
2019-05-14T02:50:41.658Z,13.40
2019-05-14T02:53:11.738Z,13.40
2019-05-14T02:55:44.772Z,13.40
2019-05-14T02:58:14.841Z,13.30
2019-05-14T03:00:48.994Z,13.30
2019-05-14T03:03:19.234Z,13.30
2019-05-14T03:05:49.872Z,13.30
2019-05-14T03:08:20.237Z,13.30
2019-05-14T03:10:50.831Z,13.40
2019-05-14T03:13:21.108Z,13.40
2019-05-14T03:15:51.354Z,13.40
2019-05-14T03:18:21.562Z,13.40
2019-05-14T03:20:53.356Z,13.40
2019-05-14T03:23:23.539Z,13.40
2019-05-14T03:26:29.735Z,13.30
2019-05-14T03:32:03.307Z,13.20
2019-05-14T03:34:33.049Z,13.20
2019-05-14T03:37:05.455Z,13.20
2019-05-14T03:39:35.604Z,13.20
2019-05-14T03:42:05.739Z,13.20
2019-05-14T03:44:39.913Z,13.20
2019-05-14T03:47:10.680Z,13.20
2019-05-14T03:49:41.142Z,13.10
2019-05-14T03:52:30.630Z,13.20
2019-05-14T03:55:09.343Z,13.10
2019-05-14T03:57:40.255Z,13.20
2019-05-14T04:00:31.961Z,13.30
2019-05-14T04:03:03.894Z,13.30
2019-05-14T04:05:34.261Z,13.40
2019-05-14T04:08:09.502Z,13.30
2019-05-14T04:10:40.202Z,13.40
2019-05-14T04:13:13.230Z,13.30
2019-05-14T04:15:45.750Z,13.30
2019-05-14T04:18:18.593Z,13.30
2019-05-14T04:20:50.429Z,13.30
2019-05-14T04:23:23.195Z,13.30
2019-05-14T04:26:00.235Z,13.30
2019-05-14T04:28:35.063Z,13.30
2019-05-14T04:31:05.706Z,13.20
2019-05-14T04:33:39.278Z,13.10
2019-05-14T04:36:11.279Z,13.20
2019-05-14T04:38:41.386Z,13.20
2019-05-14T04:41:11.574Z,13.20
2019-05-14T04:43:42.959Z,13.20
2019-05-14T04:46:13.098Z,13.30
2019-05-14T04:48:44.205Z,13.30
2019-05-14T04:51:19.895Z,13.20
2019-05-14T04:54:02.667Z,13.20
2019-05-14T04:56:40.421Z,13.20
2019-05-14T04:59:12.420Z,13.20
2019-05-14T05:01:49.031Z,13.20
2019-05-14T05:04:41.174Z,13.30
2019-05-14T05:07:10.923Z,13.20
2019-05-14T05:09:41.697Z,13.20
2019-05-14T05:12:13.471Z,13.30
2019-05-14T05:14:43.627Z,13.30
2019-05-14T05:17:19.614Z,13.40
2019-05-14T05:19:59.104Z,13.40
2019-05-14T05:22:28.648Z,13.40
2019-05-14T05:25:08.404Z,13.50
2019-05-14T05:27:39.862Z,13.50
2019-05-14T05:30:14.595Z,13.50
2019-05-14T05:32:49.569Z,13.50
2019-05-14T05:35:22.874Z,13.50
2019-05-14T05:37:53.017Z,13.60
2019-05-14T05:40:24.412Z,13.60
2019-05-14T05:42:54.899Z,13.70
2019-05-14T05:45:25.039Z,13.80
2019-05-14T05:47:58.334Z,13.70
2019-05-14T05:50:28.709Z,13.70
2019-05-14T05:52:59.067Z,13.80
2019-05-14T05:55:29.419Z,13.80
2019-05-14T05:57:59.590Z,13.80
2019-05-14T06:00:35.594Z,13.90
2019-05-14T06:03:10.263Z,13.90
2019-05-14T06:05:38.935Z,13.80
2019-05-14T06:08:09.313Z,13.90
2019-05-14T06:10:39.964Z,14.00
2019-05-14T06:13:13.669Z,14.00
2019-05-14T06:15:47.880Z,14.10
2019-05-14T06:18:18.365Z,14.10
2019-05-14T06:20:58.733Z,14.10
2019-05-14T06:23:29.169Z,14.20
2019-05-14T06:25:59.990Z,14.30
2019-05-14T06:28:33.611Z,14.30
2019-05-14T06:31:04.266Z,14.40
2019-05-14T06:33:34.501Z,14.50
2019-05-14T06:36:04.739Z,14.50
2019-05-14T06:38:38.876Z,14.60
2019-05-14T06:41:09.582Z,14.60
2019-05-14T06:43:39.911Z,14.60
2019-05-14T06:46:11.692Z,14.70
2019-05-14T06:48:41.984Z,14.60
2019-05-14T06:51:12.704Z,14.70
2019-05-14T06:53:42.960Z,14.70
2019-05-14T06:56:38.556Z,14.70
2019-05-14T06:59:28.775Z,14.80
2019-05-14T07:02:00.835Z,14.80
2019-05-14T07:04:32.267Z,14.80
2019-05-14T07:07:08.515Z,14.90
2019-05-14T07:09:39.097Z,15.00
2019-05-14T07:12:12.250Z,15.10
2019-05-14T07:14:43.970Z,15.10
2019-05-14T07:17:15.281Z,15.10
2019-05-14T07:19:49.147Z,15.10
2019-05-14T07:22:20.612Z,15.20
2019-05-14T07:24:50.863Z,15.20
2019-05-14T07:27:21.186Z,15.30
2019-05-14T07:29:54.476Z,15.40
2019-05-14T07:32:24.813Z,15.40
2019-05-14T07:34:55.177Z,15.50
2019-05-14T07:37:25.487Z,15.50
2019-05-14T07:39:57.838Z,15.40
2019-05-14T07:42:28.941Z,15.40
2019-05-14T07:44:59.330Z,15.50
2019-05-14T07:47:29.631Z,15.60
2019-05-14T07:49:59.976Z,15.60
2019-05-14T07:52:30.303Z,15.70
2019-05-14T07:55:01.845Z,15.80
2019-05-14T07:57:32.147Z,15.70
2019-05-14T08:00:05.071Z,15.60
2019-05-14T08:02:35.374Z,15.50
2019-05-14T08:05:09.735Z,15.50
2019-05-14T08:07:40.108Z,15.50
2019-05-14T08:10:10.626Z,15.60
2019-05-14T08:12:42.201Z,15.60
2019-05-14T08:15:18.642Z,15.70
2019-05-14T08:17:45.147Z,15.70
2019-05-14T08:20:15.600Z,15.70
2019-05-14T08:22:45.921Z,15.80
2019-05-14T08:25:18.868Z,15.80
2019-05-14T08:27:48.603Z,15.80
2019-05-14T08:30:19.012Z,15.90
2019-05-14T08:32:49.345Z,15.90
2019-05-14T08:35:19.667Z,16.10
2019-05-14T08:38:03.447Z,16.20
2019-05-14T08:40:21.918Z,16.40
2019-05-14T08:43:04.022Z,16.40
2019-05-14T08:45:34.159Z,16.30
2019-05-14T08:48:04.327Z,16.40
2019-05-14T08:50:34.458Z,16.40
2019-05-14T08:53:05.191Z,16.30
2019-05-14T08:55:35.309Z,16.30
2019-05-14T08:58:14.133Z,16.30
2019-05-14T09:00:44.653Z,16.60
2019-05-14T09:03:14.681Z,16.90
2019-05-14T09:05:46.273Z,17.10
2019-05-14T09:08:19.056Z,17.00
2019-05-14T09:10:49.704Z,16.90
2019-05-14T09:13:20.016Z,16.80
2019-05-14T09:15:50.203Z,16.50
2019-05-14T09:18:21.812Z,16.60
2019-05-14T09:20:51.934Z,16.60
2019-05-14T09:23:22.095Z,16.80
2019-05-14T09:25:53.334Z,17.00
2019-05-14T09:28:24.031Z,17.10
2019-05-14T09:30:54.197Z,17.00
2019-05-14T09:33:24.487Z,17.00
2019-05-14T09:36:10.980Z,17.10
2019-05-14T09:38:30.555Z,16.90
2019-05-14T09:41:11.262Z,17.00
2019-05-14T09:43:35.093Z,17.10
2019-05-14T09:46:05.235Z,17.00
2019-05-14T09:48:38.001Z,17.00
2019-05-14T09:51:09.296Z,17.10
2019-05-14T09:53:41.201Z,17.30
2019-05-14T09:56:11.408Z,17.30
2019-05-14T09:58:41.912Z,17.30
2019-05-14T10:01:12.183Z,17.30
2019-05-14T10:03:42.417Z,17.60
2019-05-14T10:06:12.471Z,17.50
2019-05-14T10:08:42.540Z,17.50
2019-05-14T10:11:12.745Z,17.30
2019-05-14T10:13:42.875Z,17.70
2019-05-14T10:16:12.869Z,17.60
2019-05-14T10:18:44.085Z,17.60
2019-05-14T10:21:15.273Z,17.80
2019-05-14T10:23:45.471Z,18.10
2019-05-14T10:26:18.719Z,17.90
2019-05-14T10:28:48.624Z,17.70
2019-05-14T10:31:18.966Z,17.70
2019-05-14T10:34:01.379Z,17.90
2019-05-14T10:36:33.181Z,17.90
2019-05-14T10:39:04.466Z,17.90
2019-05-14T10:41:34.746Z,17.90
2019-05-14T10:44:05.130Z,18.00
2019-05-14T10:46:35.177Z,18.10
2019-05-14T10:49:16.315Z,18.40
2019-05-14T10:51:38.912Z,18.50
2019-05-14T10:54:20.982Z,18.60
2019-05-14T10:56:40.525Z,18.60
2019-05-14T10:59:10.660Z,18.60
2019-05-14T11:01:41.053Z,18.70
2019-05-14T11:04:11.297Z,18.60
2019-05-14T11:06:49.101Z,18.20
2019-05-14T11:09:19.547Z,18.10
2019-05-14T11:12:02.220Z,18.00
2019-05-14T11:14:32.460Z,18.10
2019-05-14T11:17:03.815Z,18.00
2019-05-14T11:19:33.858Z,18.00
2019-05-14T11:24:59.131Z,17.90
2019-05-14T11:27:29.306Z,18.00
2019-05-14T11:30:00.557Z,18.00
2019-05-14T11:32:30.896Z,18.00
2019-05-14T11:35:01.160Z,18.10
2019-05-14T11:37:32.806Z,18.10
2019-05-14T11:40:03.413Z,18.00
2019-05-14T11:42:33.709Z,17.80
2019-05-14T11:45:05.799Z,17.70
2019-05-14T11:47:37.639Z,17.40
2019-05-14T11:50:10.160Z,17.50
2019-05-14T11:52:41.495Z,17.50
2019-05-14T11:55:13.821Z,17.20
2019-05-14T11:57:48.392Z,17.00
2019-05-14T12:00:19.600Z,17.00
2019-05-14T12:02:50.065Z,17.00
2019-05-14T12:05:20.217Z,17.00
2019-05-14T12:07:50.349Z,17.10
2019-05-14T12:10:22.382Z,17.20
2019-05-14T12:12:52.431Z,17.20
2019-05-14T12:15:22.732Z,17.20
2019-05-14T12:17:59.263Z,17.20
2019-05-14T12:20:29.686Z,17.30
2019-05-14T12:22:59.400Z,17.40
2019-05-14T12:25:29.668Z,17.50
2019-05-14T12:28:04.443Z,17.30
2019-05-14T12:30:34.621Z,17.60
2019-05-14T12:33:04.755Z,17.70
2019-05-14T12:35:34.878Z,17.90
2019-05-14T12:38:06.783Z,17.80
2019-05-14T12:40:38.276Z,18.00
2019-05-14T12:43:09.618Z,18.20
2019-05-14T12:45:39.999Z,18.00
2019-05-14T12:48:18.740Z,18.20
2019-05-14T12:50:49.342Z,18.00
2019-05-14T12:53:20.052Z,17.90
2019-05-14T12:55:50.357Z,18.00
2019-05-14T12:58:20.584Z,18.00
2019-05-14T13:00:50.898Z,18.00
2019-05-14T13:03:21.025Z,18.40
2019-05-14T13:05:51.133Z,18.70
2019-05-14T13:08:21.250Z,18.90
2019-05-14T13:10:51.780Z,19.40
2019-05-14T13:13:21.904Z,19.40
2019-05-14T13:15:53.885Z,19.40
2019-05-14T13:18:23.968Z,18.70
2019-05-14T13:20:54.230Z,18.20
2019-05-14T13:23:24.313Z,18.40
2019-05-14T13:25:54.385Z,18.30
2019-05-14T13:28:25.576Z,18.40
2019-05-14T13:30:55.798Z,18.10
2019-05-14T13:33:28.325Z,17.80
2019-05-14T13:35:59.413Z,17.70
2019-05-14T13:38:29.384Z,18.00
2019-05-14T13:40:59.613Z,18.60
2019-05-14T13:43:30.395Z,18.80
2019-05-14T13:46:00.967Z,19.20
2019-05-14T13:48:31.083Z,19.30
2019-05-14T13:51:01.318Z,19.00
2019-05-14T13:53:32.706Z,18.90
2019-05-14T13:56:02.989Z,19.50
2019-05-14T13:58:33.147Z,19.60
2019-05-14T14:01:03.322Z,19.70
2019-05-14T14:03:33.601Z,19.50
2019-05-14T14:06:05.361Z,19.70
2019-05-14T14:08:35.458Z,19.40
2019-05-14T14:11:05.549Z,19.10
2019-05-14T14:13:41.296Z,18.60
2019-05-14T14:16:14.524Z,18.50
2019-05-14T14:18:43.675Z,18.70
2019-05-14T14:21:13.810Z,19.00
2019-05-14T14:23:43.993Z,19.00
2019-05-14T14:26:14.186Z,18.70
2019-05-14T14:28:44.413Z,18.10
2019-05-14T14:31:14.548Z,18.50
2019-05-14T14:33:44.774Z,18.50
2019-05-14T14:36:14.945Z,18.30
2019-05-14T14:38:45.175Z,18.50
2019-05-14T14:41:15.321Z,18.70
2019-05-14T14:43:51.991Z,19.00
2019-05-14T14:46:19.640Z,19.00
2019-05-14T14:48:49.521Z,18.70
2019-05-14T14:51:20.767Z,18.70
2019-05-14T14:54:00.815Z,18.30
2019-05-14T14:56:22.740Z,18.30
2019-05-14T14:58:54.785Z,18.00
2019-05-14T15:01:24.889Z,17.70
2019-05-14T15:03:55.064Z,17.70
2019-05-14T15:06:25.193Z,17.80
2019-05-14T15:08:55.266Z,17.70
2019-05-14T15:11:29.200Z,18.00
2019-05-14T15:13:58.893Z,18.20
2019-05-14T15:16:29.322Z,17.80
2019-05-14T15:18:59.553Z,17.80
2019-05-14T15:21:30.100Z,17.60
2019-05-14T15:24:09.750Z,17.50
2019-05-14T15:26:32.070Z,17.60
2019-05-14T15:29:03.201Z,17.60
2019-05-14T15:31:33.343Z,17.50
2019-05-14T15:34:05.082Z,17.30
2019-05-14T15:36:35.175Z,17.00
2019-05-14T15:39:09.715Z,16.90
2019-05-14T15:41:40.023Z,16.80
2019-05-14T15:44:10.245Z,16.70
2019-05-14T15:46:41.754Z,16.50
2019-05-14T15:49:12.427Z,16.40
2019-05-14T15:51:44.459Z,16.40
2019-05-14T15:54:34.979Z,16.30
2019-05-14T15:56:46.243Z,16.10
2019-05-14T15:59:19.119Z,16.00
2019-05-14T16:01:48.210Z,15.70
2019-05-14T16:04:20.848Z,15.20
2019-05-14T16:06:50.171Z,15.00
2019-05-14T16:09:20.368Z,15.20
2019-05-14T16:11:50.590Z,15.40
2019-05-14T16:14:20.574Z,15.40
2019-05-14T16:16:52.464Z,15.40
2019-05-14T16:19:25.133Z,15.40
2019-05-14T16:21:55.279Z,15.50
2019-05-14T16:24:25.332Z,15.30
2019-05-14T16:26:55.525Z,15.40
2019-05-14T16:29:40.405Z,15.30
2019-05-14T16:32:03.155Z,15.20
2019-05-14T16:34:40.966Z,15.00
2019-05-14T16:37:11.383Z,14.80
2019-05-14T16:39:41.783Z,14.70
2019-05-14T16:45:18.691Z,14.90
2019-05-14T16:47:49.137Z,15.00
2019-05-14T16:50:20.888Z,15.00
2019-05-14T16:52:51.095Z,15.00
2019-05-14T16:55:26.469Z,14.90
2019-05-14T16:57:54.150Z,14.90
2019-05-14T17:00:24.383Z,14.90
2019-05-14T17:02:59.122Z,14.80
2019-05-14T17:05:34.037Z,14.90
2019-05-14T17:08:05.841Z,15.00
2019-05-14T17:10:40.462Z,14.90
2019-05-14T17:13:10.677Z,14.70
2019-05-14T17:15:43.630Z,14.70
2019-05-14T17:18:19.256Z,14.60
2019-05-14T17:20:51.145Z,14.40
2019-05-14T17:23:40.356Z,14.40
2019-05-14T17:26:10.369Z,14.30
2019-05-14T17:28:41.349Z,14.40
2019-05-14T17:31:11.565Z,14.50
2019-05-14T17:42:33.009Z,14.00
2019-05-14T17:45:11.635Z,14.00
2019-05-14T17:47:43.411Z,14.00
2019-05-14T17:50:15.008Z,14.10
2019-05-14T17:52:55.232Z,14.30
2019-05-14T17:55:21.837Z,14.40
2019-05-14T18:00:49.211Z,14.60
2019-05-14T18:03:21.520Z,14.60
2019-05-14T18:05:53.335Z,14.50
2019-05-14T18:08:31.929Z,14.50
2019-05-14T18:11:04.960Z,14.40
2019-05-14T18:17:01.500Z,14.50
2019-05-14T18:19:31.981Z,14.50
2019-05-14T18:22:04.666Z,14.40
2019-05-14T18:24:39.632Z,14.30
2019-05-14T18:27:09.667Z,14.20
2019-05-14T18:29:41.622Z,14.20
2019-05-14T18:32:11.834Z,14.10
2019-05-14T18:34:42.338Z,14.20
2019-05-14T18:37:13.829Z,14.10
2019-05-14T18:39:48.386Z,14.20
2019-05-14T18:42:20.394Z,14.10
2019-05-14T18:44:50.576Z,14.00
2019-05-14T18:47:20.763Z,14.00
2019-05-14T18:49:50.934Z,13.80
2019-05-14T18:52:21.094Z,13.80
2019-05-14T18:54:51.210Z,13.80
2019-05-14T18:57:21.441Z,13.80
2019-05-14T18:59:51.747Z,13.80
2019-05-14T19:02:22.004Z,13.70
2019-05-14T19:04:53.791Z,13.70
2019-05-14T19:07:28.502Z,13.70
2019-05-14T19:10:00.630Z,13.60
2019-05-14T19:12:30.837Z,13.70
2019-05-14T19:15:27.772Z,13.60
2019-05-14T19:18:01.168Z,13.50
2019-05-14T19:20:34.999Z,13.30
2019-05-14T19:23:08.002Z,13.20
2019-05-14T19:25:38.926Z,13.20
2019-05-14T19:28:10.834Z,13.10
2019-05-14T19:30:41.149Z,13.10
2019-05-14T19:33:22.296Z,13.10
2019-05-14T19:35:56.931Z,13.00
2019-05-14T19:38:27.225Z,13.00
2019-05-14T19:40:58.971Z,13.00
2019-05-14T19:43:44.407Z,13.00
2019-05-14T19:46:18.965Z,13.00
2019-05-14T19:48:49.086Z,13.00
2019-05-14T19:51:20.503Z,12.90
2019-05-14T19:53:52.640Z,12.90
2019-05-14T19:56:23.303Z,12.90
2019-05-14T19:58:53.552Z,12.90
2019-05-14T20:01:25.475Z,12.90
2019-05-14T20:03:55.638Z,12.80
2019-05-14T20:06:29.585Z,12.70
2019-05-14T20:09:09.468Z,12.70
2019-05-14T20:11:42.325Z,12.60
2019-05-14T20:14:13.588Z,12.50
2019-05-14T20:16:43.723Z,12.30
2019-05-14T20:19:16.515Z,12.20
2019-05-14T20:21:48.143Z,12.10
2019-05-14T20:24:20.056Z,12.10
2019-05-14T20:26:57.580Z,12.10
2019-05-14T20:29:22.967Z,12.10
2019-05-14T20:32:14.977Z,12.10
2019-05-14T20:34:45.175Z,11.90
2019-05-14T20:37:15.283Z,11.80
2019-05-14T20:39:48.333Z,11.70
2019-05-14T20:42:19.126Z,11.70
2019-05-14T20:44:52.481Z,11.70
2019-05-14T20:47:24.075Z,11.80
2019-05-14T20:49:58.606Z,11.80
2019-05-14T20:59:44.375Z,11.50
2019-05-14T21:05:38.912Z,11.40
2019-05-14T21:08:13.397Z,11.40
2019-05-14T21:10:40.709Z,11.40
2019-05-14T21:13:10.919Z,11.50
2019-05-14T21:15:41.027Z,11.50
2019-05-14T21:18:11.084Z,11.40
2019-05-14T21:20:41.214Z,11.50
2019-05-14T21:23:11.396Z,11.50
2019-05-14T21:25:41.599Z,11.40
2019-05-14T21:28:11.783Z,11.30
2019-05-14T21:30:42.403Z,11.30
2019-05-14T21:33:12.487Z,11.30
2019-05-14T21:35:42.641Z,11.30
2019-05-14T21:38:12.749Z,11.20
2019-05-14T21:40:42.967Z,11.10
2019-05-14T21:43:13.030Z,11.10
2019-05-14T21:45:43.592Z,11.10
2019-05-14T21:48:13.597Z,11.10
2019-05-14T21:50:43.928Z,11.10
2019-05-14T21:53:14.126Z,11.00
2019-05-14T21:55:44.321Z,11.00
2019-05-14T21:58:14.540Z,10.90
2019-05-14T22:00:48.647Z,10.80
2019-05-14T22:03:20.875Z,10.70
2019-05-14T22:05:51.594Z,10.70
2019-05-14T22:08:22.013Z,10.60
2019-05-14T22:10:52.125Z,10.50
2019-05-14T22:13:22.259Z,10.40
2019-05-14T22:15:52.398Z,10.20
2019-05-14T22:18:24.035Z,10.20
2019-05-14T22:20:55.146Z,10.20
2019-05-14T22:23:25.269Z,10.20
2019-05-14T22:25:55.324Z,10.20
2019-05-14T22:28:28.722Z,10.30
2019-05-14T22:30:58.788Z,10.30
2019-05-14T22:33:28.902Z,10.40
2019-05-14T22:35:59.100Z,10.30
2019-05-14T22:38:29.482Z,10.40
2019-05-14T22:41:00.711Z,10.40
2019-05-14T22:43:30.920Z,10.30
2019-05-14T22:46:00.969Z,10.20
2019-05-14T22:48:31.450Z,10.20
2019-05-14T22:51:01.449Z,10.20
2019-05-14T22:53:31.499Z,10.20
2019-05-14T22:56:01.581Z,10.10
2019-05-14T22:58:32.737Z,10.20
2019-05-14T23:01:14.292Z,10.20
2019-05-14T23:03:34.920Z,10.20
2019-05-14T23:06:05.111Z,10.20
2019-05-14T23:08:35.245Z,10.10
2019-05-14T23:11:05.458Z,10.00
2019-05-14T23:13:35.449Z,9.90
2019-05-14T23:16:05.590Z,9.70
2019-05-14T23:18:38.002Z,9.80
2019-05-14T23:21:08.809Z,9.80
2019-05-14T23:23:39.478Z,9.90
2019-05-14T23:26:09.815Z,10.00
2019-05-14T23:28:45.365Z,9.90
2019-05-14T23:31:11.598Z,9.90
2019-05-14T23:33:41.969Z,9.90
2019-05-14T23:36:12.105Z,9.80
2019-05-14T23:38:42.296Z,9.70
2019-05-14T23:41:12.424Z,9.70
2019-05-14T23:43:42.393Z,9.70
2019-05-14T23:46:12.460Z,9.70
2019-05-14T23:48:42.526Z,9.70
2019-05-14T23:51:12.577Z,9.70
2019-05-14T23:53:42.919Z,9.70
2019-05-14T23:56:13.048Z,9.60
2019-05-14T23:58:54.228Z,9.60
